sensor_id;sensor_type;location;lat;lon;timestamp;P1;durP1;ratioP1;P2;durP2;ratioP2
18568;SDS011;14780;48.316;-1.050;2023-07-29T00:01:25;1.15;;;1.05;;
18568;SDS011;14780;48.316;-1.050;2023-07-29T00:04:11;1.20;;;1.10;;
18568;SDS011;14780;48.316;-1.050;2023-07-29T00:06:56;1.20;;;1.10;;
18568;SDS011;14780;48.316;-1.050;2023-07-29T00:09:40;1.60;;;1.02;;
18568;SDS011;14780;48.316;-1.050;2023-07-29T00:12:25;1.08;;;1.05;;
18568;SDS011;14780;48.316;-1.050;2023-07-29T00:15:11;2.20;;;1.10;;
18568;SDS011;14780;48.316;-1.050;2023-07-29T00:17:56;1.60;;;1.20;;
18568;SDS011;14780;48.316;-1.050;2023-07-29T00:20:41;0.85;;;0.85;;
18568;SDS011;14780;48.316;-1.050;2023-07-29T00:23:25;1.50;;;1.00;;
18568;SDS011;14780;48.316;-1.050;2023-07-29T00:26:11;1.25;;;1.10;;
18568;SDS011;14780;48.316;-1.050;2023-07-29T00:28:57;1.30;;;1.17;;
18568;SDS011;14780;48.316;-1.050;2023-07-29T00:31:42;1.10;;;1.00;;
18568;SDS011;14780;48.316;-1.050;2023-07-29T00:34:26;1.23;;;1.13;;
18568;SDS011;14780;48.316;-1.050;2023-07-29T00:37:11;1.33;;;1.23;;
18568;SDS011;14780;48.316;-1.050;2023-07-29T00:39:56;1.50;;;1.10;;
18568;SDS011;14780;48.316;-1.050;2023-07-29T00:42:41;1.15;;;1.08;;
18568;SDS011;14780;48.316;-1.050;2023-07-29T00:45:27;1.00;;;1.00;;
18568;SDS011;14780;48.316;-1.050;2023-07-29T00:48:15;1.15;;;1.10;;
18568;SDS011;14780;48.316;-1.050;2023-07-29T00:51:00;1.30;;;1.20;;
18568;SDS011;14780;48.316;-1.050;2023-07-29T00:53:44;1.42;;;1.17;;
18568;SDS011;14780;48.316;-1.050;2023-07-29T00:56:29;1.25;;;1.15;;
18568;SDS011;14780;48.316;-1.050;2023-07-29T00:59:14;1.13;;;1.00;;
18568;SDS011;14780;48.316;-1.050;2023-07-29T01:01:59;3.10;;;1.17;;
18568;SDS011;14780;48.316;-1.050;2023-07-29T01:04:44;1.40;;;1.08;;
18568;SDS011;14780;48.316;-1.050;2023-07-29T01:13:44;1.20;;;1.10;;
18568;SDS011;14780;48.316;-1.050;2023-07-29T01:16:41;1.30;;;1.00;;
18568;SDS011;14780;48.316;-1.050;2023-07-29T01:22:39;1.07;;;1.00;;
18568;SDS011;14780;48.316;-1.050;2023-07-29T01:25:25;1.30;;;1.20;;
18568;SDS011;14780;48.316;-1.050;2023-07-29T01:28:10;1.40;;;1.00;;
18568;SDS011;14780;48.316;-1.050;2023-07-29T01:31:01;1.05;;;0.95;;
18568;SDS011;14780;48.316;-1.050;2023-07-29T01:34:22;0.88;;;0.88;;
18568;SDS011;14780;48.316;-1.050;2023-07-29T01:37:15;1.00;;;0.90;;
18568;SDS011;14780;48.316;-1.050;2023-07-29T01:40:06;1.08;;;0.98;;
18568;SDS011;14780;48.316;-1.050;2023-07-29T01:42:52;1.63;;;1.15;;
18568;SDS011;14780;48.316;-1.050;2023-07-29T01:45:38;1.20;;;1.10;;
18568;SDS011;14780;48.316;-1.050;2023-07-29T01:48:23;0.90;;;0.90;;
18568;SDS011;14780;48.316;-1.050;2023-07-29T01:51:10;1.25;;;1.15;;
18568;SDS011;14780;48.316;-1.050;2023-07-29T01:53:56;1.40;;;1.10;;
18568;SDS011;14780;48.316;-1.050;2023-07-29T01:56:43;1.30;;;1.05;;
18568;SDS011;14780;48.316;-1.050;2023-07-29T01:59:27;1.30;;;1.10;;
18568;SDS011;14780;48.316;-1.050;2023-07-29T02:02:12;1.10;;;1.00;;
18568;SDS011;14780;48.316;-1.050;2023-07-29T02:04:56;1.33;;;1.10;;
18568;SDS011;14780;48.316;-1.050;2023-07-29T02:07:41;0.93;;;0.93;;
18568;SDS011;14780;48.316;-1.050;2023-07-29T02:10:25;1.10;;;1.00;;
18568;SDS011;14780;48.316;-1.050;2023-07-29T02:13:11;1.50;;;1.23;;
18568;SDS011;14780;48.316;-1.050;2023-07-29T02:15:56;0.98;;;0.98;;
18568;SDS011;14780;48.316;-1.050;2023-07-29T02:18:40;1.10;;;1.00;;
18568;SDS011;14780;48.316;-1.050;2023-07-29T02:21:25;1.42;;;1.33;;
18568;SDS011;14780;48.316;-1.050;2023-07-29T02:24:10;1.30;;;1.20;;
18568;SDS011;14780;48.316;-1.050;2023-07-29T02:26:54;1.73;;;1.33;;
18568;SDS011;14780;48.316;-1.050;2023-07-29T02:29:39;1.40;;;1.00;;
18568;SDS011;14780;48.316;-1.050;2023-07-29T02:32:24;1.13;;;1.10;;
18568;SDS011;14780;48.316;-1.050;2023-07-29T02:35:08;1.35;;;1.25;;
18568;SDS011;14780;48.316;-1.050;2023-07-29T02:37:53;1.67;;;1.07;;
18568;SDS011;14780;48.316;-1.050;2023-07-29T02:40:38;1.25;;;1.15;;
18568;SDS011;14780;48.316;-1.050;2023-07-29T02:43:22;1.00;;;1.00;;
18568;SDS011;14780;48.316;-1.050;2023-07-29T02:46:07;1.73;;;1.17;;
18568;SDS011;14780;48.316;-1.050;2023-07-29T02:48:52;1.50;;;1.20;;
18568;SDS011;14780;48.316;-1.050;2023-07-29T02:51:37;1.20;;;1.10;;
18568;SDS011;14780;48.316;-1.050;2023-07-29T02:54:22;1.10;;;1.02;;
18568;SDS011;14780;48.316;-1.050;2023-07-29T02:57:07;1.20;;;1.10;;
18568;SDS011;14780;48.316;-1.050;2023-07-29T02:59:51;1.17;;;1.08;;
18568;SDS011;14780;48.316;-1.050;2023-07-29T03:02:36;1.70;;;1.10;;
18568;SDS011;14780;48.316;-1.050;2023-07-29T03:05:20;1.33;;;1.23;;
18568;SDS011;14780;48.316;-1.050;2023-07-29T03:08:05;1.92;;;1.30;;
18568;SDS011;14780;48.316;-1.050;2023-07-29T03:10:50;1.40;;;1.10;;
18568;SDS011;14780;48.316;-1.050;2023-07-29T03:13:34;1.50;;;0.93;;
18568;SDS011;14780;48.316;-1.050;2023-07-29T03:16:20;1.02;;;1.00;;
18568;SDS011;14780;48.316;-1.050;2023-07-29T03:19:05;1.25;;;1.10;;
18568;SDS011;14780;48.316;-1.050;2023-07-29T03:21:50;2.20;;;1.20;;
18568;SDS011;14780;48.316;-1.050;2023-07-29T03:24:34;1.48;;;1.27;;
18568;SDS011;14780;48.316;-1.050;2023-07-29T03:27:19;2.22;;;1.15;;
18568;SDS011;14780;48.316;-1.050;2023-07-29T03:30:04;1.25;;;1.15;;
18568;SDS011;14780;48.316;-1.050;2023-07-29T03:32:50;1.50;;;1.20;;
18568;SDS011;14780;48.316;-1.050;2023-07-29T03:35:34;1.20;;;1.10;;
18568;SDS011;14780;48.316;-1.050;2023-07-29T03:38:19;1.08;;;1.00;;
18568;SDS011;14780;48.316;-1.050;2023-07-29T03:41:03;1.20;;;1.10;;
18568;SDS011;14780;48.316;-1.050;2023-07-29T03:43:48;1.00;;;1.00;;
18568;SDS011;14780;48.316;-1.050;2023-07-29T03:46:32;1.73;;;1.27;;
18568;SDS011;14780;48.316;-1.050;2023-07-29T03:49:17;1.50;;;1.00;;
18568;SDS011;14780;48.316;-1.050;2023-07-29T03:52:02;1.00;;;0.90;;
18568;SDS011;14780;48.316;-1.050;2023-07-29T03:54:47;1.20;;;1.10;;
18568;SDS011;14780;48.316;-1.050;2023-07-29T03:57:32;1.10;;;1.00;;
18568;SDS011;14780;48.316;-1.050;2023-07-29T04:00:16;1.42;;;1.27;;
18568;SDS011;14780;48.316;-1.050;2023-07-29T04:03:02;1.52;;;1.30;;
18568;SDS011;14780;48.316;-1.050;2023-07-29T04:05:47;1.13;;;1.05;;
18568;SDS011;14780;48.316;-1.050;2023-07-29T04:08:31;1.67;;;1.20;;
18568;SDS011;14780;48.316;-1.050;2023-07-29T04:11:16;2.00;;;1.10;;
18568;SDS011;14780;48.316;-1.050;2023-07-29T04:14:01;1.60;;;1.20;;
18568;SDS011;14780;48.316;-1.050;2023-07-29T04:16:45;1.58;;;1.40;;
18568;SDS011;14780;48.316;-1.050;2023-07-29T04:19:33;2.23;;;1.27;;
18568;SDS011;14780;48.316;-1.050;2023-07-29T04:22:17;1.27;;;1.10;;
18568;SDS011;14780;48.316;-1.050;2023-07-29T04:25:02;1.80;;;1.27;;
18568;SDS011;14780;48.316;-1.050;2023-07-29T04:27:48;1.95;;;1.20;;
18568;SDS011;14780;48.316;-1.050;2023-07-29T04:30:33;1.08;;;0.98;;
18568;SDS011;14780;48.316;-1.050;2023-07-29T04:33:17;2.42;;;1.40;;
18568;SDS011;14780;48.316;-1.050;2023-07-29T04:36:02;1.70;;;1.37;;
18568;SDS011;14780;48.316;-1.050;2023-07-29T04:38:47;1.48;;;1.20;;
18568;SDS011;14780;48.316;-1.050;2023-07-29T04:41:32;2.50;;;1.43;;
18568;SDS011;14780;48.316;-1.050;2023-07-29T04:44:17;2.30;;;1.30;;
18568;SDS011;14780;48.316;-1.050;2023-07-29T04:47:01;1.67;;;1.10;;
18568;SDS011;14780;48.316;-1.050;2023-07-29T04:49:46;1.75;;;1.20;;
18568;SDS011;14780;48.316;-1.050;2023-07-29T04:52:31;1.42;;;1.30;;
18568;SDS011;14780;48.316;-1.050;2023-07-29T04:55:16;3.33;;;1.40;;
18568;SDS011;14780;48.316;-1.050;2023-07-29T04:58:01;1.53;;;1.10;;
18568;SDS011;14780;48.316;-1.050;2023-07-29T05:00:48;1.42;;;1.33;;
18568;SDS011;14780;48.316;-1.050;2023-07-29T05:03:33;1.52;;;1.30;;
18568;SDS011;14780;48.316;-1.050;2023-07-29T05:06:18;2.20;;;1.27;;
18568;SDS011;14780;48.316;-1.050;2023-07-29T05:09:16;1.65;;;1.02;;
18568;SDS011;14780;48.316;-1.050;2023-07-29T05:12:02;1.65;;;1.25;;
18568;SDS011;14780;48.316;-1.050;2023-07-29T05:14:47;1.85;;;1.30;;
18568;SDS011;14780;48.316;-1.050;2023-07-29T05:17:31;2.13;;;1.17;;
18568;SDS011;14780;48.316;-1.050;2023-07-29T05:20:16;2.17;;;1.38;;
18568;SDS011;14780;48.316;-1.050;2023-07-29T05:23:00;2.33;;;1.40;;
18568;SDS011;14780;48.316;-1.050;2023-07-29T05:25:45;1.40;;;1.17;;
18568;SDS011;14780;48.316;-1.050;2023-07-29T05:28:30;1.57;;;1.33;;
18568;SDS011;14780;48.316;-1.050;2023-07-29T05:31:15;1.88;;;1.50;;
18568;SDS011;14780;48.316;-1.050;2023-07-29T05:33:59;2.28;;;1.63;;
18568;SDS011;14780;48.316;-1.050;2023-07-29T05:36:44;2.10;;;1.52;;
18568;SDS011;14780;48.316;-1.050;2023-07-29T05:39:29;1.60;;;1.40;;
18568;SDS011;14780;48.316;-1.050;2023-07-29T05:42:16;1.55;;;1.30;;
18568;SDS011;14780;48.316;-1.050;2023-07-29T05:45:00;1.92;;;1.40;;
18568;SDS011;14780;48.316;-1.050;2023-07-29T05:47:46;1.48;;;1.35;;
18568;SDS011;14780;48.316;-1.050;2023-07-29T05:50:31;1.33;;;1.23;;
18568;SDS011;14780;48.316;-1.050;2023-07-29T05:53:16;1.48;;;1.38;;
18568;SDS011;14780;48.316;-1.050;2023-07-29T05:56:00;2.28;;;1.42;;
18568;SDS011;14780;48.316;-1.050;2023-07-29T05:58:45;4.32;;;1.95;;
18568;SDS011;14780;48.316;-1.050;2023-07-29T06:01:29;2.50;;;1.55;;
18568;SDS011;14780;48.316;-1.050;2023-07-29T06:04:14;3.05;;;1.77;;
18568;SDS011;14780;48.316;-1.050;2023-07-29T06:06:58;1.50;;;1.40;;
18568;SDS011;14780;48.316;-1.050;2023-07-29T06:09:43;2.17;;;1.50;;
18568;SDS011;14780;48.316;-1.050;2023-07-29T06:12:28;1.98;;;1.58;;
18568;SDS011;14780;48.316;-1.050;2023-07-29T06:15:13;2.38;;;1.42;;
18568;SDS011;14780;48.316;-1.050;2023-07-29T06:17:57;2.20;;;1.42;;
18568;SDS011;14780;48.316;-1.050;2023-07-29T06:20:42;2.10;;;1.55;;
18568;SDS011;14780;48.316;-1.050;2023-07-29T06:23:27;2.05;;;1.50;;
18568;SDS011;14780;48.316;-1.050;2023-07-29T06:26:11;2.13;;;1.55;;
18568;SDS011;14780;48.316;-1.050;2023-07-29T06:28:56;2.20;;;1.35;;
18568;SDS011;14780;48.316;-1.050;2023-07-29T06:31:40;1.55;;;1.25;;
18568;SDS011;14780;48.316;-1.050;2023-07-29T06:34:25;2.38;;;1.50;;
18568;SDS011;14780;48.316;-1.050;2023-07-29T06:37:10;1.65;;;1.25;;
18568;SDS011;14780;48.316;-1.050;2023-07-29T06:39:55;1.60;;;1.40;;
18568;SDS011;14780;48.316;-1.050;2023-07-29T06:42:40;1.63;;;1.40;;
18568;SDS011;14780;48.316;-1.050;2023-07-29T06:45:24;1.70;;;1.25;;
18568;SDS011;14780;48.316;-1.050;2023-07-29T06:48:09;2.15;;;1.60;;
18568;SDS011;14780;48.316;-1.050;2023-07-29T06:50:53;2.08;;;1.38;;
18568;SDS011;14780;48.316;-1.050;2023-07-29T06:53:38;1.85;;;1.52;;
18568;SDS011;14780;48.316;-1.050;2023-07-29T06:56:23;1.80;;;1.40;;
18568;SDS011;14780;48.316;-1.050;2023-07-29T06:59:07;2.03;;;1.40;;
18568;SDS011;14780;48.316;-1.050;2023-07-29T07:01:52;1.30;;;1.20;;
18568;SDS011;14780;48.316;-1.050;2023-07-29T07:04:37;1.60;;;1.40;;
18568;SDS011;14780;48.316;-1.050;2023-07-29T07:07:22;2.17;;;1.40;;
18568;SDS011;14780;48.316;-1.050;2023-07-29T07:10:07;2.00;;;1.45;;
18568;SDS011;14780;48.316;-1.050;2023-07-29T07:12:52;3.47;;;1.50;;
18568;SDS011;14780;48.316;-1.050;2023-07-29T07:15:36;1.45;;;1.33;;
18568;SDS011;14780;48.316;-1.050;2023-07-29T07:18:21;1.80;;;1.50;;
18568;SDS011;14780;48.316;-1.050;2023-07-29T07:21:06;1.50;;;1.38;;
18568;SDS011;14780;48.316;-1.050;2023-07-29T07:23:51;1.58;;;1.17;;
18568;SDS011;14780;48.316;-1.050;2023-07-29T07:26:36;1.88;;;1.30;;
18568;SDS011;14780;48.316;-1.050;2023-07-29T07:29:20;2.08;;;1.20;;
18568;SDS011;14780;48.316;-1.050;2023-07-29T07:32:05;2.10;;;1.50;;
18568;SDS011;14780;48.316;-1.050;2023-07-29T07:34:50;1.55;;;1.35;;
18568;SDS011;14780;48.316;-1.050;2023-07-29T07:37:35;1.70;;;1.30;;
18568;SDS011;14780;48.316;-1.050;2023-07-29T07:40:19;2.10;;;1.40;;
18568;SDS011;14780;48.316;-1.050;2023-07-29T07:43:04;1.40;;;1.30;;
18568;SDS011;14780;48.316;-1.050;2023-07-29T07:45:48;2.13;;;1.40;;
18568;SDS011;14780;48.316;-1.050;2023-07-29T07:48:33;1.27;;;1.10;;
18568;SDS011;14780;48.316;-1.050;2023-07-29T07:51:17;2.22;;;1.38;;
18568;SDS011;14780;48.316;-1.050;2023-07-29T07:54:02;1.87;;;1.40;;
18568;SDS011;14780;48.316;-1.050;2023-07-29T07:56:46;1.90;;;1.40;;
18568;SDS011;14780;48.316;-1.050;2023-07-29T07:59:31;1.40;;;1.30;;
18568;SDS011;14780;48.316;-1.050;2023-07-29T08:02:16;2.05;;;1.42;;
18568;SDS011;14780;48.316;-1.050;2023-07-29T08:05:00;1.50;;;1.40;;
18568;SDS011;14780;48.316;-1.050;2023-07-29T08:07:45;1.70;;;1.30;;
18568;SDS011;14780;48.316;-1.050;2023-07-29T08:10:29;1.35;;;1.25;;
18568;SDS011;14780;48.316;-1.050;2023-07-29T08:13:14;1.48;;;1.20;;
18568;SDS011;14780;48.316;-1.050;2023-07-29T08:15:58;1.75;;;1.38;;
18568;SDS011;14780;48.316;-1.050;2023-07-29T08:18:43;1.02;;;1.00;;
18568;SDS011;14780;48.316;-1.050;2023-07-29T08:21:28;1.20;;;1.10;;
18568;SDS011;14780;48.316;-1.050;2023-07-29T08:24:12;1.23;;;1.13;;
18568;SDS011;14780;48.316;-1.050;2023-07-29T08:26:57;2.03;;;1.40;;
18568;SDS011;14780;48.316;-1.050;2023-07-29T08:29:42;1.70;;;1.40;;
18568;SDS011;14780;48.316;-1.050;2023-07-29T08:32:26;1.17;;;1.00;;
18568;SDS011;14780;48.316;-1.050;2023-07-29T08:35:11;2.00;;;1.27;;
18568;SDS011;14780;48.316;-1.050;2023-07-29T08:37:56;2.47;;;1.15;;
18568;SDS011;14780;48.316;-1.050;2023-07-29T08:41:04;1.55;;;1.20;;
18568;SDS011;14780;48.316;-1.050;2023-07-29T08:43:56;1.30;;;1.20;;
18568;SDS011;14780;48.316;-1.050;2023-07-29T08:46:41;1.30;;;1.20;;
18568;SDS011;14780;48.316;-1.050;2023-07-29T08:49:26;1.40;;;1.30;;
18568;SDS011;14780;48.316;-1.050;2023-07-29T08:52:12;1.45;;;1.20;;
18568;SDS011;14780;48.316;-1.050;2023-07-29T08:54:58;1.80;;;1.10;;
18568;SDS011;14780;48.316;-1.050;2023-07-29T08:57:43;1.50;;;1.40;;
18568;SDS011;14780;48.316;-1.050;2023-07-29T09:00:29;1.73;;;1.30;;
18568;SDS011;14780;48.316;-1.050;2023-07-29T09:03:15;1.80;;;1.35;;
18568;SDS011;14780;48.316;-1.050;2023-07-29T09:05:59;1.40;;;1.30;;
18568;SDS011;14780;48.316;-1.050;2023-07-29T09:08:45;1.60;;;1.40;;
18568;SDS011;14780;48.316;-1.050;2023-07-29T09:11:31;1.45;;;1.35;;
18568;SDS011;14780;48.316;-1.050;2023-07-29T09:14:17;1.60;;;1.35;;
18568;SDS011;14780;48.316;-1.050;2023-07-29T09:17:02;1.40;;;1.30;;
18568;SDS011;14780;48.316;-1.050;2023-07-29T09:19:50;2.03;;;1.40;;
18568;SDS011;14780;48.316;-1.050;2023-07-29T09:22:35;1.75;;;1.55;;
18568;SDS011;14780;48.316;-1.050;2023-07-29T09:25:27;1.48;;;1.38;;
18568;SDS011;14780;48.316;-1.050;2023-07-29T09:28:13;2.27;;;1.20;;
18568;SDS011;14780;48.316;-1.050;2023-07-29T09:30:58;1.38;;;1.27;;
18568;SDS011;14780;48.316;-1.050;2023-07-29T09:33:43;2.22;;;1.50;;
18568;SDS011;14780;48.316;-1.050;2023-07-29T09:36:30;1.63;;;1.20;;
18568;SDS011;14780;48.316;-1.050;2023-07-29T09:39:15;2.05;;;1.38;;
18568;SDS011;14780;48.316;-1.050;2023-07-29T09:42:00;1.58;;;1.45;;
18568;SDS011;14780;48.316;-1.050;2023-07-29T09:44:45;2.05;;;1.50;;
18568;SDS011;14780;48.316;-1.050;2023-07-29T09:47:29;1.88;;;1.50;;
18568;SDS011;14780;48.316;-1.050;2023-07-29T09:50:14;1.98;;;1.40;;
18568;SDS011;14780;48.316;-1.050;2023-07-29T09:53:00;1.38;;;1.27;;
18568;SDS011;14780;48.316;-1.050;2023-07-29T09:55:47;2.33;;;1.50;;
18568;SDS011;14780;48.316;-1.050;2023-07-29T09:58:34;2.40;;;1.52;;
18568;SDS011;14780;48.316;-1.050;2023-07-29T10:01:19;3.03;;;1.70;;
18568;SDS011;14780;48.316;-1.050;2023-07-29T10:04:04;2.03;;;1.40;;
18568;SDS011;14780;48.316;-1.050;2023-07-29T10:06:49;1.40;;;1.30;;
18568;SDS011;14780;48.316;-1.050;2023-07-29T10:09:35;2.38;;;1.73;;
18568;SDS011;14780;48.316;-1.050;2023-07-29T10:12:22;2.00;;;1.40;;
18568;SDS011;14780;48.316;-1.050;2023-07-29T10:15:08;1.55;;;1.38;;
18568;SDS011;14780;48.316;-1.050;2023-07-29T10:17:53;1.97;;;1.40;;
18568;SDS011;14780;48.316;-1.050;2023-07-29T10:20:38;2.95;;;1.70;;
18568;SDS011;14780;48.316;-1.050;2023-07-29T10:23:24;2.25;;;1.50;;
18568;SDS011;14780;48.316;-1.050;2023-07-29T10:26:10;3.95;;;1.65;;
18568;SDS011;14780;48.316;-1.050;2023-07-29T10:28:57;1.80;;;1.50;;
18568;SDS011;14780;48.316;-1.050;2023-07-29T10:31:48;2.13;;;1.73;;
18568;SDS011;14780;48.316;-1.050;2023-07-29T10:34:35;2.40;;;1.90;;
18568;SDS011;14780;48.316;-1.050;2023-07-29T10:37:22;1.98;;;1.63;;
18568;SDS011;14780;48.316;-1.050;2023-07-29T10:40:08;2.05;;;1.52;;
18568;SDS011;14780;48.316;-1.050;2023-07-29T10:43:02;1.83;;;1.38;;
18568;SDS011;14780;48.316;-1.050;2023-07-29T10:45:55;2.45;;;1.55;;
18568;SDS011;14780;48.316;-1.050;2023-07-29T10:48:41;1.98;;;1.63;;
18568;SDS011;14780;48.316;-1.050;2023-07-29T10:51:30;1.63;;;1.40;;
18568;SDS011;14780;48.316;-1.050;2023-07-29T10:54:19;3.05;;;1.77;;
18568;SDS011;14780;48.316;-1.050;2023-07-29T10:57:04;3.77;;;1.50;;
18568;SDS011;14780;48.316;-1.050;2023-07-29T10:59:55;2.92;;;1.90;;
18568;SDS011;14780;48.316;-1.050;2023-07-29T11:02:40;1.90;;;1.63;;
18568;SDS011;14780;48.316;-1.050;2023-07-29T11:05:25;2.53;;;1.60;;
18568;SDS011;14780;48.316;-1.050;2023-07-29T11:08:17;2.30;;;1.60;;
18568;SDS011;14780;48.316;-1.050;2023-07-29T11:11:20;1.47;;;1.33;;
18568;SDS011;14780;48.316;-1.050;2023-07-29T11:14:05;1.77;;;1.60;;
18568;SDS011;14780;48.316;-1.050;2023-07-29T11:16:51;2.75;;;1.65;;
18568;SDS011;14780;48.316;-1.050;2023-07-29T11:19:37;2.30;;;1.80;;
18568;SDS011;14780;48.316;-1.050;2023-07-29T11:22:23;2.35;;;1.55;;
18568;SDS011;14780;48.316;-1.050;2023-07-29T11:25:10;2.50;;;1.70;;
18568;SDS011;14780;48.316;-1.050;2023-07-29T11:27:57;2.13;;;1.80;;
18568;SDS011;14780;48.316;-1.050;2023-07-29T11:30:43;2.80;;;1.75;;
18568;SDS011;14780;48.316;-1.050;2023-07-29T11:33:27;3.00;;;1.80;;
18568;SDS011;14780;48.316;-1.050;2023-07-29T11:36:19;1.95;;;1.67;;
18568;SDS011;14780;48.316;-1.050;2023-07-29T11:39:09;2.72;;;1.70;;
18568;SDS011;14780;48.316;-1.050;2023-07-29T11:41:55;2.10;;;1.60;;
18568;SDS011;14780;48.316;-1.050;2023-07-29T11:44:40;2.45;;;1.83;;
18568;SDS011;14780;48.316;-1.050;2023-07-29T11:47:25;2.50;;;1.80;;
18568;SDS011;14780;48.316;-1.050;2023-07-29T11:50:11;2.47;;;1.70;;
18568;SDS011;14780;48.316;-1.050;2023-07-29T11:53:00;2.67;;;1.85;;
18568;SDS011;14780;48.316;-1.050;2023-07-29T11:55:44;3.15;;;1.80;;
18568;SDS011;14780;48.316;-1.050;2023-07-29T11:58:33;2.17;;;1.70;;
18568;SDS011;14780;48.316;-1.050;2023-07-29T12:01:17;2.13;;;1.75;;
18568;SDS011;14780;48.316;-1.050;2023-07-29T12:04:02;4.43;;;1.90;;
18568;SDS011;14780;48.316;-1.050;2023-07-29T12:06:47;2.17;;;1.60;;
18568;SDS011;14780;48.316;-1.050;2023-07-29T12:09:33;2.22;;;1.55;;
18568;SDS011;14780;48.316;-1.050;2023-07-29T12:12:19;2.38;;;1.80;;
18568;SDS011;14780;48.316;-1.050;2023-07-29T12:15:05;2.22;;;1.60;;
18568;SDS011;14780;48.316;-1.050;2023-07-29T12:17:52;3.22;;;1.85;;
18568;SDS011;14780;48.316;-1.050;2023-07-29T12:20:39;3.58;;;1.90;;
18568;SDS011;14780;48.316;-1.050;2023-07-29T12:23:25;2.17;;;1.80;;
18568;SDS011;14780;48.316;-1.050;2023-07-29T12:26:10;2.55;;;1.80;;
18568;SDS011;14780;48.316;-1.050;2023-07-29T12:28:55;2.80;;;1.90;;
18568;SDS011;14780;48.316;-1.050;2023-07-29T12:31:42;2.35;;;1.70;;
18568;SDS011;14780;48.316;-1.050;2023-07-29T12:34:28;2.35;;;1.60;;
18568;SDS011;14780;48.316;-1.050;2023-07-29T12:37:14;2.58;;;1.80;;
18568;SDS011;14780;48.316;-1.050;2023-07-29T12:39:58;3.00;;;1.80;;
18568;SDS011;14780;48.316;-1.050;2023-07-29T12:42:43;3.22;;;1.80;;
18568;SDS011;14780;48.316;-1.050;2023-07-29T12:45:27;2.20;;;1.60;;
18568;SDS011;14780;48.316;-1.050;2023-07-29T12:48:19;1.95;;;1.67;;
18568;SDS011;14780;48.316;-1.050;2023-07-29T12:51:04;3.17;;;1.88;;
18568;SDS011;14780;48.316;-1.050;2023-07-29T12:53:48;2.08;;;1.80;;
18568;SDS011;14780;48.316;-1.050;2023-07-29T12:56:33;2.08;;;1.70;;
18568;SDS011;14780;48.316;-1.050;2023-07-29T12:59:18;2.10;;;1.73;;
18568;SDS011;14780;48.316;-1.050;2023-07-29T13:02:03;1.70;;;1.57;;
18568;SDS011;14780;48.316;-1.050;2023-07-29T13:04:48;2.70;;;1.90;;
18568;SDS011;14780;48.316;-1.050;2023-07-29T13:07:32;2.92;;;1.90;;
18568;SDS011;14780;48.316;-1.050;2023-07-29T13:10:17;3.53;;;2.00;;
18568;SDS011;14780;48.316;-1.050;2023-07-29T13:13:01;2.53;;;1.80;;
18568;SDS011;14780;48.316;-1.050;2023-07-29T13:15:46;2.78;;;1.98;;
18568;SDS011;14780;48.316;-1.050;2023-07-29T13:18:30;1.90;;;1.55;;
18568;SDS011;14780;48.316;-1.050;2023-07-29T13:21:15;3.42;;;1.77;;
18568;SDS011;14780;48.316;-1.050;2023-07-29T13:24:00;3.33;;;1.80;;
18568;SDS011;14780;48.316;-1.050;2023-07-29T13:26:45;2.97;;;1.80;;
18568;SDS011;14780;48.316;-1.050;2023-07-29T13:29:29;2.95;;;1.77;;
18568;SDS011;14780;48.316;-1.050;2023-07-29T13:32:14;2.42;;;1.80;;
18568;SDS011;14780;48.316;-1.050;2023-07-29T13:34:58;2.35;;;1.80;;
18568;SDS011;14780;48.316;-1.050;2023-07-29T13:37:43;3.25;;;2.00;;
18568;SDS011;14780;48.316;-1.050;2023-07-29T13:40:27;1.65;;;1.50;;
18568;SDS011;14780;48.316;-1.050;2023-07-29T13:43:13;2.90;;;2.00;;
18568;SDS011;14780;48.316;-1.050;2023-07-29T13:45:58;2.47;;;1.80;;
18568;SDS011;14780;48.316;-1.050;2023-07-29T13:48:42;2.58;;;1.85;;
18568;SDS011;14780;48.316;-1.050;2023-07-29T13:51:27;2.92;;;1.77;;
18568;SDS011;14780;48.316;-1.050;2023-07-29T13:54:12;3.03;;;1.70;;
18568;SDS011;14780;48.316;-1.050;2023-07-29T13:56:56;2.67;;;1.90;;
18568;SDS011;14780;48.316;-1.050;2023-07-29T13:59:41;2.90;;;1.92;;
18568;SDS011;14780;48.316;-1.050;2023-07-29T14:02:26;3.03;;;1.88;;
18568;SDS011;14780;48.316;-1.050;2023-07-29T14:05:11;5.20;;;1.90;;
18568;SDS011;14780;48.316;-1.050;2023-07-29T14:07:56;3.03;;;1.85;;
18568;SDS011;14780;48.316;-1.050;2023-07-29T14:10:40;3.60;;;2.08;;
18568;SDS011;14780;48.316;-1.050;2023-07-29T14:13:25;1.98;;;1.63;;
18568;SDS011;14780;48.316;-1.050;2023-07-29T14:16:10;3.20;;;2.10;;
18568;SDS011;14780;48.316;-1.050;2023-07-29T14:18:54;2.63;;;1.85;;
18568;SDS011;14780;48.316;-1.050;2023-07-29T14:21:39;3.30;;;2.00;;
18568;SDS011;14780;48.316;-1.050;2023-07-29T14:24:23;2.92;;;1.90;;
18568;SDS011;14780;48.316;-1.050;2023-07-29T14:27:08;4.07;;;1.90;;
18568;SDS011;14780;48.316;-1.050;2023-07-29T14:29:53;2.70;;;1.98;;
18568;SDS011;14780;48.316;-1.050;2023-07-29T14:32:38;3.50;;;2.13;;
18568;SDS011;14780;48.316;-1.050;2023-07-29T14:35:23;2.30;;;1.80;;
18568;SDS011;14780;48.316;-1.050;2023-07-29T14:38:07;2.30;;;1.70;;
18568;SDS011;14780;48.316;-1.050;2023-07-29T14:40:52;2.63;;;1.85;;
18568;SDS011;14780;48.316;-1.050;2023-07-29T14:43:37;2.17;;;1.80;;
18568;SDS011;14780;48.316;-1.050;2023-07-29T14:46:22;2.55;;;1.70;;
18568;SDS011;14780;48.316;-1.050;2023-07-29T14:49:07;3.10;;;2.10;;
18568;SDS011;14780;48.316;-1.050;2023-07-29T14:51:52;2.58;;;1.70;;
18568;SDS011;14780;48.316;-1.050;2023-07-29T14:54:37;3.75;;;1.90;;
18568;SDS011;14780;48.316;-1.050;2023-07-29T14:57:22;2.70;;;2.10;;
18568;SDS011;14780;48.316;-1.050;2023-07-29T15:00:06;3.22;;;1.92;;
18568;SDS011;14780;48.316;-1.050;2023-07-29T15:02:52;3.47;;;1.90;;
18568;SDS011;14780;48.316;-1.050;2023-07-29T15:05:37;2.90;;;1.87;;
18568;SDS011;14780;48.316;-1.050;2023-07-29T15:08:22;2.92;;;2.00;;
18568;SDS011;14780;48.316;-1.050;2023-07-29T15:11:06;2.78;;;1.85;;
18568;SDS011;14780;48.316;-1.050;2023-07-29T15:13:51;2.97;;;1.98;;
18568;SDS011;14780;48.316;-1.050;2023-07-29T15:16:36;5.05;;;1.80;;
18568;SDS011;14780;48.316;-1.050;2023-07-29T15:19:22;2.88;;;2.05;;
18568;SDS011;14780;48.316;-1.050;2023-07-29T15:22:08;2.78;;;1.92;;
18568;SDS011;14780;48.316;-1.050;2023-07-29T15:24:53;3.80;;;2.00;;
18568;SDS011;14780;48.316;-1.050;2023-07-29T15:27:38;2.88;;;1.80;;
18568;SDS011;14780;48.316;-1.050;2023-07-29T15:30:23;2.58;;;1.95;;
18568;SDS011;14780;48.316;-1.050;2023-07-29T15:33:07;2.60;;;1.80;;
18568;SDS011;14780;48.316;-1.050;2023-07-29T15:35:52;2.85;;;2.00;;
18568;SDS011;14780;48.316;-1.050;2023-07-29T15:38:36;3.25;;;2.28;;
18568;SDS011;14780;48.316;-1.050;2023-07-29T15:41:21;3.33;;;2.10;;
18568;SDS011;14780;48.316;-1.050;2023-07-29T15:44:07;2.85;;;1.95;;
18568;SDS011;14780;48.316;-1.050;2023-07-29T15:46:52;3.15;;;1.90;;
18568;SDS011;14780;48.316;-1.050;2023-07-29T15:49:38;3.08;;;1.90;;
18568;SDS011;14780;48.316;-1.050;2023-07-29T15:52:23;1.95;;;1.60;;
18568;SDS011;14780;48.316;-1.050;2023-07-29T15:55:09;2.95;;;2.13;;
18568;SDS011;14780;48.316;-1.050;2023-07-29T15:57:54;2.30;;;1.80;;
18568;SDS011;14780;48.316;-1.050;2023-07-29T16:00:39;2.28;;;1.77;;
18568;SDS011;14780;48.316;-1.050;2023-07-29T16:03:24;4.57;;;2.00;;
18568;SDS011;14780;48.316;-1.050;2023-07-29T16:06:09;3.13;;;1.90;;
18568;SDS011;14780;48.316;-1.050;2023-07-29T16:08:53;3.80;;;1.90;;
18568;SDS011;14780;48.316;-1.050;2023-07-29T16:11:39;2.40;;;1.80;;
18568;SDS011;14780;48.316;-1.050;2023-07-29T16:14:24;2.97;;;2.00;;
18568;SDS011;14780;48.316;-1.050;2023-07-29T16:17:08;3.22;;;1.95;;
18568;SDS011;14780;48.316;-1.050;2023-07-29T16:19:55;2.60;;;1.80;;
18568;SDS011;14780;48.316;-1.050;2023-07-29T16:22:42;2.22;;;1.70;;
18568;SDS011;14780;48.316;-1.050;2023-07-29T16:25:28;3.63;;;1.80;;
18568;SDS011;14780;48.316;-1.050;2023-07-29T16:28:12;2.72;;;2.00;;
18568;SDS011;14780;48.316;-1.050;2023-07-29T16:30:57;2.40;;;1.80;;